Portada
METAR-TAF:

METAR-TAF

Aeroports :

Aeroport Internacional de Xangai-Pudong

Xangai-Pudong, Xina

latitud: 31-07N, longitud: 121-46E, altitud: 4 m

Observació

L'informe es va fer fa 30 minuts, a les 06:30 UTC
Vent 12 kt del Nord
Temperatura 9°C
Humitat 53%
Pressió 1023 hPa
Visibilitat: 4500 m
Escasses núvols a una alçada de 2600 ft
calitja

METAR: ZSPD 230630Z 36006MPS 4500 HZ FEW026 09/00 Q1023 NOSIG

Hora: 15:00 (07:00 UTC)

Pronòstic

L'informe es va fer fa 3 hores i 37 minuts, a les 03:23 UTC
Pronòstic vàlid del 23 a les 06 UTC al 24 a les 06 UTC
Vent 8 kt del Nord/Nord-Oest
Visibilitat: 5000 m
Núvols disperses a una alçada de 2000 ft
boirina

TAF: ZSPD 230323Z 2306/2406 34004MPS 5000 BR SCT020 TX12/2306Z TN04/2321Z

Observacions i pronòstics meteorològics de més de 4000 aeroports (METAR i TAF).

Les estacions disponibles són els punts grocs i vermells al mapa.

Posi el ratolí al punt desitjat per veure el nom de l'estació.

Feu clic per veure les observacions i els pronòstics meteorològics.

Per canviar el mapa: feu clic els botons verds amb una creu de color negre per apropar; al botó verd amb un guió per allunyar la imatge; o en les fletxes verdes per a mapes adjacents.


METAR-TAF: